Terminal Aerodrome Forecast
Issued by NWS

Home | Current Version | Previous Version | Graphics & Text | Print | Product List | Glossary On
Versions: 1 2 3 4 5 6 7 8 9 10 11 12 13 14 15 16
000
FTUS43 KICT 280500
TAFHUT
TAF
KHUT 280520Z 2806/2906 12007KT P6SM FEW070
     FM281600 17012G20KT P6SM SCT060
     FM290000 15010KT P6SM SCT250=

USA.gov is the U.S. government's official web portal to all federal, state and local government web resources and services.